sensor_id;sensor_type;location;lat;lon;timestamp;P1;durP1;ratioP1;P2;durP2;ratioP2
51332;SDS011;37417;48.118;11.734;2023-09-08T00:01:02;9.73;;;4.78;;
51332;SDS011;37417;48.118;11.734;2023-09-08T00:03:48;7.25;;;5.63;;
51332;SDS011;37417;48.118;11.734;2023-09-08T00:06:34;6.85;;;4.85;;
51332;SDS011;37417;48.118;11.734;2023-09-08T00:09:19;7.15;;;4.80;;
51332;SDS011;37417;48.118;11.734;2023-09-08T00:12:05;8.10;;;4.80;;
51332;SDS011;37417;48.118;11.734;2023-09-08T00:14:51;7.25;;;4.82;;
51332;SDS011;37417;48.118;11.734;2023-09-08T00:17:37;7.07;;;5.38;;
51332;SDS011;37417;48.118;11.734;2023-09-08T00:20:23;8.00;;;5.43;;
51332;SDS011;37417;48.118;11.734;2023-09-08T00:23:08;7.82;;;4.93;;
51332;SDS011;37417;48.118;11.734;2023-09-08T00:25:54;6.03;;;4.32;;
51332;SDS011;37417;48.118;11.734;2023-09-08T00:28:40;6.75;;;4.85;;
51332;SDS011;37417;48.118;11.734;2023-09-08T00:31:25;6.05;;;4.57;;
51332;SDS011;37417;48.118;11.734;2023-09-08T00:34:11;6.93;;;4.72;;
51332;SDS011;37417;48.118;11.734;2023-09-08T00:36:57;6.72;;;5.03;;
51332;SDS011;37417;48.118;11.734;2023-09-08T00:39:42;6.85;;;5.15;;
51332;SDS011;37417;48.118;11.734;2023-09-08T00:42:28;13.30;;;5.72;;
51332;SDS011;37417;48.118;11.734;2023-09-08T00:45:13;6.70;;;5.40;;
51332;SDS011;37417;48.118;11.734;2023-09-08T00:47:59;5.68;;;4.53;;
51332;SDS011;37417;48.118;11.734;2023-09-08T00:50:45;6.50;;;4.88;;
51332;SDS011;37417;48.118;11.734;2023-09-08T00:53:31;6.55;;;4.70;;
51332;SDS011;37417;48.118;11.734;2023-09-08T00:56:16;8.88;;;5.07;;
51332;SDS011;37417;48.118;11.734;2023-09-08T00:59:03;7.95;;;5.72;;
51332;SDS011;37417;48.118;11.734;2023-09-08T01:01:49;7.40;;;5.65;;
51332;SDS011;37417;48.118;11.734;2023-09-08T01:04:35;8.23;;;5.43;;
51332;SDS011;37417;48.118;11.734;2023-09-08T01:07:26;11.00;;;6.00;;
51332;SDS011;37417;48.118;11.734;2023-09-08T01:10:15;11.00;;;5.35;;
51332;SDS011;37417;48.118;11.734;2023-09-08T01:13:01;8.07;;;5.82;;
51332;SDS011;37417;48.118;11.734;2023-09-08T01:15:47;9.13;;;5.93;;
51332;SDS011;37417;48.118;11.734;2023-09-08T01:18:33;7.22;;;5.50;;
51332;SDS011;37417;48.118;11.734;2023-09-08T01:24:56;8.43;;;6.13;;
51332;SDS011;37417;48.118;11.734;2023-09-08T01:27:52;6.63;;;5.32;;
51332;SDS011;37417;48.118;11.734;2023-09-08T01:30:40;6.88;;;5.20;;
51332;SDS011;37417;48.118;11.734;2023-09-08T01:33:25;9.70;;;5.55;;
51332;SDS011;37417;48.118;11.734;2023-09-08T01:36:12;7.43;;;5.20;;
51332;SDS011;37417;48.118;11.734;2023-09-08T01:38:59;7.30;;;5.40;;
51332;SDS011;37417;48.118;11.734;2023-09-08T01:41:45;6.13;;;4.75;;
51332;SDS011;37417;48.118;11.734;2023-09-08T01:44:31;8.10;;;5.97;;
51332;SDS011;37417;48.118;11.734;2023-09-08T01:47:17;7.10;;;5.45;;
51332;SDS011;37417;48.118;11.734;2023-09-08T01:50:02;5.68;;;5.00;;
51332;SDS011;37417;48.118;11.734;2023-09-08T01:52:48;7.38;;;5.68;;
51332;SDS011;37417;48.118;11.734;2023-09-08T01:55:34;8.18;;;6.32;;
51332;SDS011;37417;48.118;11.734;2023-09-08T01:58:20;7.55;;;5.65;;
51332;SDS011;37417;48.118;11.734;2023-09-08T02:01:05;8.45;;;5.88;;
51332;SDS011;37417;48.118;11.734;2023-09-08T02:03:51;6.70;;;5.95;;
51332;SDS011;37417;48.118;11.734;2023-09-08T02:06:36;9.93;;;5.55;;
51332;SDS011;37417;48.118;11.734;2023-09-08T02:09:22;10.77;;;5.68;;
51332;SDS011;37417;48.118;11.734;2023-09-08T02:12:17;6.53;;;5.43;;
51332;SDS011;37417;48.118;11.734;2023-09-08T02:15:03;9.52;;;6.15;;
51332;SDS011;37417;48.118;11.734;2023-09-08T02:17:52;11.55;;;5.70;;
51332;SDS011;37417;48.118;11.734;2023-09-08T02:20:38;6.57;;;5.68;;
51332;SDS011;37417;48.118;11.734;2023-09-08T02:23:24;7.65;;;5.95;;
51332;SDS011;37417;48.118;11.734;2023-09-08T02:26:09;7.53;;;5.95;;
51332;SDS011;37417;48.118;11.734;2023-09-08T02:28:56;7.50;;;5.38;;
51332;SDS011;37417;48.118;11.734;2023-09-08T02:31:41;8.55;;;5.50;;
51332;SDS011;37417;48.118;11.734;2023-09-08T02:34:27;8.15;;;5.75;;
51332;SDS011;37417;48.118;11.734;2023-09-08T02:37:13;7.30;;;5.55;;
51332;SDS011;37417;48.118;11.734;2023-09-08T02:39:58;5.97;;;5.10;;
51332;SDS011;37417;48.118;11.734;2023-09-08T02:42:44;7.88;;;4.80;;
51332;SDS011;37417;48.118;11.734;2023-09-08T02:45:30;7.35;;;4.90;;
51332;SDS011;37417;48.118;11.734;2023-09-08T02:48:15;6.18;;;4.75;;
51332;SDS011;37417;48.118;11.734;2023-09-08T02:51:01;6.07;;;4.85;;
51332;SDS011;37417;48.118;11.734;2023-09-08T02:53:47;7.25;;;5.60;;
51332;SDS011;37417;48.118;11.734;2023-09-08T02:56:33;7.55;;;5.78;;
51332;SDS011;37417;48.118;11.734;2023-09-08T02:59:18;6.80;;;5.80;;
51332;SDS011;37417;48.118;11.734;2023-09-08T03:02:04;6.75;;;5.53;;
51332;SDS011;37417;48.118;11.734;2023-09-08T03:04:50;8.45;;;5.07;;
51332;SDS011;37417;48.118;11.734;2023-09-08T03:07:35;7.15;;;5.32;;
51332;SDS011;37417;48.118;11.734;2023-09-08T03:10:22;9.18;;;5.50;;
51332;SDS011;37417;48.118;11.734;2023-09-08T03:13:08;8.45;;;5.72;;
51332;SDS011;37417;48.118;11.734;2023-09-08T03:15:54;8.63;;;5.22;;
51332;SDS011;37417;48.118;11.734;2023-09-08T03:18:40;8.07;;;5.82;;
51332;SDS011;37417;48.118;11.734;2023-09-08T03:21:26;7.18;;;5.40;;
51332;SDS011;37417;48.118;11.734;2023-09-08T03:24:12;7.07;;;5.28;;
51332;SDS011;37417;48.118;11.734;2023-09-08T03:26:57;6.90;;;5.32;;
51332;SDS011;37417;48.118;11.734;2023-09-08T03:29:43;7.35;;;5.38;;
51332;SDS011;37417;48.118;11.734;2023-09-08T03:32:29;7.75;;;5.78;;
51332;SDS011;37417;48.118;11.734;2023-09-08T03:35:15;6.78;;;5.20;;
51332;SDS011;37417;48.118;11.734;2023-09-08T03:38:00;6.20;;;5.53;;
51332;SDS011;37417;48.118;11.734;2023-09-08T03:40:46;5.88;;;4.68;;
51332;SDS011;37417;48.118;11.734;2023-09-08T03:43:32;8.23;;;5.47;;
51332;SDS011;37417;48.118;11.734;2023-09-08T03:46:17;6.38;;;5.57;;
51332;SDS011;37417;48.118;11.734;2023-09-08T03:49:03;7.65;;;5.55;;
51332;SDS011;37417;48.118;11.734;2023-09-08T03:51:49;5.68;;;5.10;;
51332;SDS011;37417;48.118;11.734;2023-09-08T03:54:35;13.57;;;5.63;;
51332;SDS011;37417;48.118;11.734;2023-09-08T03:57:21;6.70;;;5.70;;
51332;SDS011;37417;48.118;11.734;2023-09-08T04:00:07;6.80;;;4.93;;
51332;SDS011;37417;48.118;11.734;2023-09-08T04:02:53;8.85;;;5.55;;
51332;SDS011;37417;48.118;11.734;2023-09-08T04:05:39;7.40;;;5.85;;
51332;SDS011;37417;48.118;11.734;2023-09-08T04:08:24;7.78;;;5.55;;
51332;SDS011;37417;48.118;11.734;2023-09-08T04:11:10;6.80;;;5.25;;
51332;SDS011;37417;48.118;11.734;2023-09-08T04:13:56;10.63;;;5.90;;
51332;SDS011;37417;48.118;11.734;2023-09-08T04:16:41;8.13;;;5.75;;
51332;SDS011;37417;48.118;11.734;2023-09-08T04:19:27;7.10;;;5.72;;
51332;SDS011;37417;48.118;11.734;2023-09-08T04:22:13;7.68;;;6.60;;
51332;SDS011;37417;48.118;11.734;2023-09-08T04:24:59;9.38;;;5.32;;
51332;SDS011;37417;48.118;11.734;2023-09-08T04:27:44;7.22;;;5.15;;
51332;SDS011;37417;48.118;11.734;2023-09-08T04:30:30;9.68;;;6.38;;
51332;SDS011;37417;48.118;11.734;2023-09-08T04:33:16;8.30;;;6.45;;
51332;SDS011;37417;48.118;11.734;2023-09-08T04:36:01;8.55;;;5.97;;
51332;SDS011;37417;48.118;11.734;2023-09-08T04:38:47;10.40;;;5.30;;
51332;SDS011;37417;48.118;11.734;2023-09-08T04:41:33;10.02;;;6.28;;
51332;SDS011;37417;48.118;11.734;2023-09-08T04:44:18;8.52;;;5.88;;
51332;SDS011;37417;48.118;11.734;2023-09-08T04:47:04;7.28;;;5.05;;
51332;SDS011;37417;48.118;11.734;2023-09-08T04:49:50;6.13;;;5.45;;
51332;SDS011;37417;48.118;11.734;2023-09-08T04:52:36;5.78;;;4.95;;
51332;SDS011;37417;48.118;11.734;2023-09-08T04:55:21;7.57;;;5.53;;
51332;SDS011;37417;48.118;11.734;2023-09-08T04:58:07;6.05;;;4.90;;
51332;SDS011;37417;48.118;11.734;2023-09-08T05:00:53;8.38;;;5.60;;
51332;SDS011;37417;48.118;11.734;2023-09-08T05:03:39;6.55;;;5.55;;
51332;SDS011;37417;48.118;11.734;2023-09-08T05:06:24;8.43;;;5.50;;
51332;SDS011;37417;48.118;11.734;2023-09-08T05:09:11;10.70;;;5.38;;
51332;SDS011;37417;48.118;11.734;2023-09-08T05:11:58;5.95;;;4.95;;
51332;SDS011;37417;48.118;11.734;2023-09-08T05:14:45;7.00;;;5.93;;
51332;SDS011;37417;48.118;11.734;2023-09-08T05:17:31;11.57;;;7.15;;
51332;SDS011;37417;48.118;11.734;2023-09-08T05:20:16;7.05;;;5.30;;
51332;SDS011;37417;48.118;11.734;2023-09-08T05:23:02;6.82;;;5.43;;
51332;SDS011;37417;48.118;11.734;2023-09-08T05:25:48;7.72;;;4.85;;
51332;SDS011;37417;48.118;11.734;2023-09-08T05:28:33;7.72;;;4.38;;
51332;SDS011;37417;48.118;11.734;2023-09-08T05:31:19;6.20;;;4.18;;
51332;SDS011;37417;48.118;11.734;2023-09-08T05:34:05;7.95;;;3.95;;
51332;SDS011;37417;48.118;11.734;2023-09-08T05:36:50;8.50;;;4.43;;
51332;SDS011;37417;48.118;11.734;2023-09-08T05:39:36;5.30;;;3.97;;
51332;SDS011;37417;48.118;11.734;2023-09-08T05:42:21;8.35;;;5.32;;
51332;SDS011;37417;48.118;11.734;2023-09-08T05:45:07;10.48;;;3.75;;
51332;SDS011;37417;48.118;11.734;2023-09-08T05:47:53;6.72;;;3.90;;
51332;SDS011;37417;48.118;11.734;2023-09-08T05:50:39;5.57;;;3.72;;
51332;SDS011;37417;48.118;11.734;2023-09-08T05:53:24;6.03;;;3.63;;
51332;SDS011;37417;48.118;11.734;2023-09-08T05:56:10;4.63;;;3.10;;
51332;SDS011;37417;48.118;11.734;2023-09-08T05:58:55;5.25;;;3.47;;
51332;SDS011;37417;48.118;11.734;2023-09-08T06:01:41;4.63;;;3.85;;
51332;SDS011;37417;48.118;11.734;2023-09-08T06:04:27;4.60;;;3.42;;
51332;SDS011;37417;48.118;11.734;2023-09-08T06:07:12;14.25;;;4.60;;
51332;SDS011;37417;48.118;11.734;2023-09-08T06:09:58;5.32;;;3.75;;
51332;SDS011;37417;48.118;11.734;2023-09-08T06:12:44;8.50;;;4.30;;
51332;SDS011;37417;48.118;11.734;2023-09-08T06:15:30;7.72;;;4.22;;
51332;SDS011;37417;48.118;11.734;2023-09-08T06:18:15;10.68;;;4.22;;
51332;SDS011;37417;48.118;11.734;2023-09-08T06:21:01;7.55;;;3.70;;
51332;SDS011;37417;48.118;11.734;2023-09-08T06:23:47;8.75;;;3.67;;
51332;SDS011;37417;48.118;11.734;2023-09-08T06:26:32;11.43;;;4.25;;
51332;SDS011;37417;48.118;11.734;2023-09-08T06:29:18;9.52;;;4.07;;
51332;SDS011;37417;48.118;11.734;2023-09-08T06:32:04;10.95;;;3.78;;
51332;SDS011;37417;48.118;11.734;2023-09-08T06:34:50;7.72;;;3.50;;
51332;SDS011;37417;48.118;11.734;2023-09-08T06:37:36;4.85;;;3.75;;
51332;SDS011;37417;48.118;11.734;2023-09-08T06:40:22;6.35;;;3.80;;
51332;SDS011;37417;48.118;11.734;2023-09-08T06:43:08;6.63;;;3.80;;
51332;SDS011;37417;48.118;11.734;2023-09-08T06:45:53;10.80;;;3.90;;
51332;SDS011;37417;48.118;11.734;2023-09-08T06:48:39;5.30;;;3.60;;
51332;SDS011;37417;48.118;11.734;2023-09-08T06:51:25;5.20;;;4.13;;
51332;SDS011;37417;48.118;11.734;2023-09-08T06:54:10;4.10;;;3.40;;
51332;SDS011;37417;48.118;11.734;2023-09-08T06:56:56;4.05;;;3.47;;
51332;SDS011;37417;48.118;11.734;2023-09-08T06:59:42;4.93;;;3.58;;
51332;SDS011;37417;48.118;11.734;2023-09-08T07:02:27;6.88;;;3.75;;
51332;SDS011;37417;48.118;11.734;2023-09-08T07:05:13;4.32;;;3.83;;
51332;SDS011;37417;48.118;11.734;2023-09-08T07:07:59;6.25;;;3.95;;
51332;SDS011;37417;48.118;11.734;2023-09-08T07:10:45;5.75;;;3.67;;
51332;SDS011;37417;48.118;11.734;2023-09-08T07:13:30;3.25;;;2.90;;
51332;SDS011;37417;48.118;11.734;2023-09-08T07:16:16;9.38;;;3.72;;
51332;SDS011;37417;48.118;11.734;2023-09-08T07:19:02;6.35;;;4.03;;
51332;SDS011;37417;48.118;11.734;2023-09-08T07:21:47;6.03;;;3.10;;
51332;SDS011;37417;48.118;11.734;2023-09-08T07:24:33;5.30;;;4.07;;
51332;SDS011;37417;48.118;11.734;2023-09-08T07:27:19;5.55;;;3.50;;
51332;SDS011;37417;48.118;11.734;2023-09-08T07:30:05;3.58;;;3.08;;
51332;SDS011;37417;48.118;11.734;2023-09-08T07:32:51;4.20;;;3.38;;
51332;SDS011;37417;48.118;11.734;2023-09-08T07:35:39;4.65;;;3.03;;
51332;SDS011;37417;48.118;11.734;2023-09-08T07:38:25;8.13;;;3.50;;
51332;SDS011;37417;48.118;11.734;2023-09-08T07:41:10;5.35;;;2.95;;
51332;SDS011;37417;48.118;11.734;2023-09-08T07:43:57;4.20;;;3.38;;
51332;SDS011;37417;48.118;11.734;2023-09-08T07:46:42;4.03;;;3.38;;
51332;SDS011;37417;48.118;11.734;2023-09-08T07:49:29;5.10;;;3.45;;
51332;SDS011;37417;48.118;11.734;2023-09-08T07:52:15;3.53;;;3.08;;
51332;SDS011;37417;48.118;11.734;2023-09-08T07:55:00;3.38;;;3.05;;
51332;SDS011;37417;48.118;11.734;2023-09-08T07:57:46;4.70;;;3.38;;
51332;SDS011;37417;48.118;11.734;2023-09-08T08:00:32;3.90;;;3.20;;
51332;SDS011;37417;48.118;11.734;2023-09-08T08:03:18;6.90;;;3.10;;
51332;SDS011;37417;48.118;11.734;2023-09-08T08:06:03;4.10;;;3.40;;
51332;SDS011;37417;48.118;11.734;2023-09-08T08:08:50;3.47;;;2.63;;
51332;SDS011;37417;48.118;11.734;2023-09-08T08:11:36;4.88;;;2.90;;
51332;SDS011;37417;48.118;11.734;2023-09-08T08:14:21;5.32;;;3.40;;
51332;SDS011;37417;48.118;11.734;2023-09-08T08:17:07;4.57;;;2.70;;
51332;SDS011;37417;48.118;11.734;2023-09-08T08:19:53;6.25;;;3.00;;
51332;SDS011;37417;48.118;11.734;2023-09-08T08:22:39;4.60;;;3.05;;
51332;SDS011;37417;48.118;11.734;2023-09-08T08:25:25;5.97;;;3.33;;
51332;SDS011;37417;48.118;11.734;2023-09-08T08:28:10;6.30;;;2.97;;
51332;SDS011;37417;48.118;11.734;2023-09-08T08:30:56;3.65;;;2.78;;
51332;SDS011;37417;48.118;11.734;2023-09-08T08:33:42;3.80;;;2.70;;
51332;SDS011;37417;48.118;11.734;2023-09-08T08:36:28;3.03;;;2.72;;
51332;SDS011;37417;48.118;11.734;2023-09-08T08:39:14;2.95;;;2.72;;
51332;SDS011;37417;48.118;11.734;2023-09-08T08:42:06;4.30;;;2.72;;
51332;SDS011;37417;48.118;11.734;2023-09-08T08:44:53;3.90;;;2.80;;
51332;SDS011;37417;48.118;11.734;2023-09-08T08:47:38;3.22;;;2.80;;
51332;SDS011;37417;48.118;11.734;2023-09-08T08:50:24;5.30;;;2.83;;
51332;SDS011;37417;48.118;11.734;2023-09-08T08:53:10;8.13;;;3.15;;
51332;SDS011;37417;48.118;11.734;2023-09-08T08:55:58;2.83;;;2.50;;
51332;SDS011;37417;48.118;11.734;2023-09-08T08:58:45;6.35;;;3.03;;
51332;SDS011;37417;48.118;11.734;2023-09-08T09:01:31;5.07;;;2.97;;
51332;SDS011;37417;48.118;11.734;2023-09-08T09:04:17;3.97;;;3.00;;
51332;SDS011;37417;48.118;11.734;2023-09-08T09:07:03;5.60;;;3.22;;
51332;SDS011;37417;48.118;11.734;2023-09-08T09:09:51;5.15;;;2.80;;
51332;SDS011;37417;48.118;11.734;2023-09-08T09:12:37;4.30;;;3.00;;
51332;SDS011;37417;48.118;11.734;2023-09-08T09:15:29;3.75;;;3.10;;
51332;SDS011;37417;48.118;11.734;2023-09-08T09:18:15;5.20;;;2.78;;
51332;SDS011;37417;48.118;11.734;2023-09-08T09:21:01;5.70;;;3.47;;
51332;SDS011;37417;48.118;11.734;2023-09-08T09:23:47;9.45;;;3.00;;
51332;SDS011;37417;48.118;11.734;2023-09-08T09:26:33;3.42;;;3.05;;
51332;SDS011;37417;48.118;11.734;2023-09-08T09:29:19;3.05;;;2.75;;
51332;SDS011;37417;48.118;11.734;2023-09-08T09:32:06;7.95;;;3.35;;
51332;SDS011;37417;48.118;11.734;2023-09-08T09:34:53;6.45;;;3.20;;
51332;SDS011;37417;48.118;11.734;2023-09-08T09:37:40;3.13;;;2.83;;
51332;SDS011;37417;48.118;11.734;2023-09-08T09:40:27;5.00;;;2.88;;
51332;SDS011;37417;48.118;11.734;2023-09-08T09:43:14;5.75;;;3.35;;
51332;SDS011;37417;48.118;11.734;2023-09-08T09:46:01;3.38;;;3.08;;
51332;SDS011;37417;48.118;11.734;2023-09-08T09:48:51;4.68;;;3.50;;
51332;SDS011;37417;48.118;11.734;2023-09-08T09:51:40;3.58;;;3.10;;
51332;SDS011;37417;48.118;11.734;2023-09-08T09:54:27;7.32;;;3.72;;
51332;SDS011;37417;48.118;11.734;2023-09-08T09:57:14;8.52;;;3.42;;
51332;SDS011;37417;48.118;11.734;2023-09-08T10:00:00;3.83;;;3.03;;
51332;SDS011;37417;48.118;11.734;2023-09-08T10:05:37;3.88;;;3.47;;
51332;SDS011;37417;48.118;11.734;2023-09-08T10:08:22;3.70;;;2.92;;
51332;SDS011;37417;48.118;11.734;2023-09-08T10:11:08;2.97;;;2.55;;
51332;SDS011;37417;48.118;11.734;2023-09-08T10:13:54;6.95;;;3.33;;
51332;SDS011;37417;48.118;11.734;2023-09-08T10:16:44;3.35;;;3.05;;
51332;SDS011;37417;48.118;11.734;2023-09-08T10:19:34;4.32;;;3.13;;
51332;SDS011;37417;48.118;11.734;2023-09-08T10:22:28;3.70;;;2.95;;
51332;SDS011;37417;48.118;11.734;2023-09-08T10:25:16;3.63;;;3.33;;
51332;SDS011;37417;48.118;11.734;2023-09-08T10:28:05;3.83;;;3.42;;
51332;SDS011;37417;48.118;11.734;2023-09-08T10:30:53;3.58;;;3.20;;
51332;SDS011;37417;48.118;11.734;2023-09-08T10:33:39;4.65;;;2.60;;
51332;SDS011;37417;48.118;11.734;2023-09-08T10:36:26;6.10;;;3.20;;
51332;SDS011;37417;48.118;11.734;2023-09-08T10:39:29;3.78;;;3.03;;
51332;SDS011;37417;48.118;11.734;2023-09-08T10:45:02;4.63;;;3.03;;
51332;SDS011;37417;48.118;11.734;2023-09-08T10:48:00;4.90;;;3.20;;
51332;SDS011;37417;48.118;11.734;2023-09-08T10:50:47;8.23;;;3.03;;
51332;SDS011;37417;48.118;11.734;2023-09-08T10:53:33;3.38;;;2.80;;
51332;SDS011;37417;48.118;11.734;2023-09-08T10:56:18;4.43;;;2.58;;
51332;SDS011;37417;48.118;11.734;2023-09-08T10:59:04;3.65;;;3.08;;
51332;SDS011;37417;48.118;11.734;2023-09-08T11:01:50;3.63;;;3.03;;
51332;SDS011;37417;48.118;11.734;2023-09-08T11:04:35;3.10;;;2.78;;
51332;SDS011;37417;48.118;11.734;2023-09-08T11:07:24;3.00;;;2.67;;
51332;SDS011;37417;48.118;11.734;2023-09-08T11:10:10;4.97;;;2.53;;
51332;SDS011;37417;48.118;11.734;2023-09-08T11:12:57;4.15;;;2.60;;
51332;SDS011;37417;48.118;11.734;2023-09-08T11:15:45;3.67;;;3.20;;
51332;SDS011;37417;48.118;11.734;2023-09-08T11:18:31;5.43;;;2.67;;
51332;SDS011;37417;48.118;11.734;2023-09-08T11:21:19;4.75;;;2.72;;
51332;SDS011;37417;48.118;11.734;2023-09-08T11:24:05;4.57;;;3.25;;
51332;SDS011;37417;48.118;11.734;2023-09-08T11:26:51;4.45;;;2.70;;
51332;SDS011;37417;48.118;11.734;2023-09-08T11:29:37;6.03;;;3.03;;
51332;SDS011;37417;48.118;11.734;2023-09-08T11:32:31;4.28;;;2.65;;
51332;SDS011;37417;48.118;11.734;2023-09-08T11:35:18;4.97;;;3.00;;
51332;SDS011;37417;48.118;11.734;2023-09-08T11:38:06;3.15;;;2.80;;
51332;SDS011;37417;48.118;11.734;2023-09-08T11:40:56;4.20;;;2.75;;
51332;SDS011;37417;48.118;11.734;2023-09-08T11:43:43;4.63;;;3.20;;
51332;SDS011;37417;48.118;11.734;2023-09-08T11:46:30;2.80;;;2.55;;
51332;SDS011;37417;48.118;11.734;2023-09-08T11:49:18;3.80;;;2.85;;
51332;SDS011;37417;48.118;11.734;2023-09-08T11:52:04;5.43;;;3.00;;
51332;SDS011;37417;48.118;11.734;2023-09-08T11:54:51;3.15;;;2.70;;
51332;SDS011;37417;48.118;11.734;2023-09-08T11:57:37;4.70;;;2.63;;
51332;SDS011;37417;48.118;11.734;2023-09-08T12:00:24;2.95;;;2.67;;
51332;SDS011;37417;48.118;11.734;2023-09-08T12:03:11;4.13;;;2.95;;
51332;SDS011;37417;48.118;11.734;2023-09-08T12:05:58;4.03;;;3.00;;
51332;SDS011;37417;48.118;11.734;2023-09-08T12:08:45;5.20;;;2.80;;
51332;SDS011;37417;48.118;11.734;2023-09-08T12:11:32;6.20;;;2.95;;
51332;SDS011;37417;48.118;11.734;2023-09-08T12:14:22;3.40;;;3.08;;
51332;SDS011;37417;48.118;11.734;2023-09-08T12:17:08;3.00;;;2.70;;
51332;SDS011;37417;48.118;11.734;2023-09-08T12:19:54;5.70;;;2.90;;
51332;SDS011;37417;48.118;11.734;2023-09-08T12:22:47;2.90;;;2.60;;
51332;SDS011;37417;48.118;11.734;2023-09-08T12:25:43;4.32;;;2.83;;
51332;SDS011;37417;48.118;11.734;2023-09-08T12:28:30;4.65;;;2.80;;
51332;SDS011;37417;48.118;11.734;2023-09-08T12:31:17;3.22;;;2.90;;
51332;SDS011;37417;48.118;11.734;2023-09-08T12:34:03;3.40;;;3.10;;
51332;SDS011;37417;48.118;11.734;2023-09-08T12:36:48;3.83;;;2.78;;
51332;SDS011;37417;48.118;11.734;2023-09-08T12:39:34;5.63;;;2.80;;
51332;SDS011;37417;48.118;11.734;2023-09-08T12:42:20;4.03;;;3.20;;
51332;SDS011;37417;48.118;11.734;2023-09-08T12:45:11;3.58;;;2.70;;
51332;SDS011;37417;48.118;11.734;2023-09-08T12:47:58;3.20;;;2.45;;
51332;SDS011;37417;48.118;11.734;2023-09-08T12:50:46;3.88;;;2.63;;
51332;SDS011;37417;48.118;11.734;2023-09-08T12:53:33;6.22;;;3.20;;
51332;SDS011;37417;48.118;11.734;2023-09-08T12:56:22;3.47;;;2.90;;
51332;SDS011;37417;48.118;11.734;2023-09-08T12:59:07;3.53;;;2.60;;
51332;SDS011;37417;48.118;11.734;2023-09-08T13:01:54;5.63;;;3.40;;
51332;SDS011;37417;48.118;11.734;2023-09-08T13:04:40;3.70;;;3.00;;
51332;SDS011;37417;48.118;11.734;2023-09-08T13:07:26;8.25;;;3.17;;
51332;SDS011;37417;48.118;11.734;2023-09-08T13:10:12;3.83;;;3.17;;
51332;SDS011;37417;48.118;11.734;2023-09-08T13:12:58;3.33;;;3.03;;
51332;SDS011;37417;48.118;11.734;2023-09-08T13:15:44;5.38;;;3.90;;
51332;SDS011;37417;48.118;11.734;2023-09-08T13:18:29;4.43;;;2.90;;
51332;SDS011;37417;48.118;11.734;2023-09-08T13:21:20;4.10;;;3.72;;
51332;SDS011;37417;48.118;11.734;2023-09-08T13:24:06;4.60;;;3.42;;
51332;SDS011;37417;48.118;11.734;2023-09-08T13:26:53;4.63;;;3.08;;
51332;SDS011;37417;48.118;11.734;2023-09-08T13:29:38;3.92;;;3.03;;
51332;SDS011;37417;48.118;11.734;2023-09-08T13:32:24;6.13;;;3.13;;
51332;SDS011;37417;48.118;11.734;2023-09-08T13:35:13;5.07;;;2.70;;
51332;SDS011;37417;48.118;11.734;2023-09-08T13:37:59;10.77;;;3.60;;
51332;SDS011;37417;48.118;11.734;2023-09-08T13:40:45;4.85;;;3.10;;
51332;SDS011;37417;48.118;11.734;2023-09-08T13:43:31;3.13;;;2.60;;
51332;SDS011;37417;48.118;11.734;2023-09-08T13:46:16;6.60;;;3.03;;
51332;SDS011;37417;48.118;11.734;2023-09-08T13:49:02;3.15;;;2.90;;
51332;SDS011;37417;48.118;11.734;2023-09-08T13:51:48;5.82;;;2.97;;
51332;SDS011;37417;48.118;11.734;2023-09-08T13:54:36;3.28;;;2.90;;
51332;SDS011;37417;48.118;11.734;2023-09-08T13:57:22;3.50;;;2.42;;
51332;SDS011;37417;48.118;11.734;2023-09-08T14:00:11;3.65;;;2.80;;
51332;SDS011;37417;48.118;11.734;2023-09-08T14:02:57;2.70;;;2.50;;
51332;SDS011;37417;48.118;11.734;2023-09-08T14:05:42;2.83;;;2.63;;
51332;SDS011;37417;48.118;11.734;2023-09-08T14:08:28;3.03;;;2.42;;
51332;SDS011;37417;48.118;11.734;2023-09-08T14:11:13;6.57;;;3.08;;
51332;SDS011;37417;48.118;11.734;2023-09-08T14:13:59;2.50;;;2.30;;
51332;SDS011;37417;48.118;11.734;2023-09-08T14:16:45;3.58;;;2.70;;
51332;SDS011;37417;48.118;11.734;2023-09-08T14:19:31;4.75;;;2.50;;
51332;SDS011;37417;48.118;11.734;2023-09-08T14:22:16;3.47;;;2.40;;
51332;SDS011;37417;48.118;11.734;2023-09-08T14:25:02;4.20;;;2.30;;
51332;SDS011;37417;48.118;11.734;2023-09-08T14:27:48;3.95;;;2.90;;
51332;SDS011;37417;48.118;11.734;2023-09-08T14:30:34;5.35;;;2.80;;
51332;SDS011;37417;48.118;11.734;2023-09-08T14:33:20;3.83;;;2.70;;
51332;SDS011;37417;48.118;11.734;2023-09-08T14:36:06;4.22;;;2.70;;
51332;SDS011;37417;48.118;11.734;2023-09-08T14:38:53;3.83;;;2.55;;
51332;SDS011;37417;48.118;11.734;2023-09-08T14:41:39;7.45;;;3.03;;
51332;SDS011;37417;48.118;11.734;2023-09-08T14:44:25;3.33;;;2.88;;
51332;SDS011;37417;48.118;11.734;2023-09-08T14:47:11;2.95;;;2.58;;
51332;SDS011;37417;48.118;11.734;2023-09-08T14:49:58;2.88;;;2.47;;
51332;SDS011;37417;48.118;11.734;2023-09-08T14:52:43;2.58;;;2.35;;
51332;SDS011;37417;48.118;11.734;2023-09-08T14:55:29;2.63;;;2.42;;
51332;SDS011;37417;48.118;11.734;2023-09-08T14:58:15;3.88;;;2.67;;
51332;SDS011;37417;48.118;11.734;2023-09-08T15:01:01;2.63;;;2.25;;
51332;SDS011;37417;48.118;11.734;2023-09-08T15:03:49;3.85;;;2.70;;
51332;SDS011;37417;48.118;11.734;2023-09-08T15:06:35;7.28;;;2.80;;
51332;SDS011;37417;48.118;11.734;2023-09-08T15:09:21;6.72;;;2.63;;
51332;SDS011;37417;48.118;11.734;2023-09-08T15:12:07;3.80;;;2.70;;
51332;SDS011;37417;48.118;11.734;2023-09-08T15:14:53;4.70;;;2.97;;
51332;SDS011;37417;48.118;11.734;2023-09-08T15:17:38;4.45;;;2.60;;
51332;SDS011;37417;48.118;11.734;2023-09-08T15:20:24;3.30;;;2.72;;
51332;SDS011;37417;48.118;11.734;2023-09-08T15:23:10;5.25;;;2.42;;
51332;SDS011;37417;48.118;11.734;2023-09-08T15:25:56;5.25;;;3.17;;
51332;SDS011;37417;48.118;11.734;2023-09-08T15:28:43;5.25;;;2.95;;
51332;SDS011;37417;48.118;11.734;2023-09-08T15:31:28;3.92;;;3.20;;
51332;SDS011;37417;48.118;11.734;2023-09-08T15:34:14;7.75;;;3.15;;
51332;SDS011;37417;48.118;11.734;2023-09-08T15:37:00;5.40;;;3.22;;
51332;SDS011;37417;48.118;11.734;2023-09-08T15:39:45;4.78;;;3.00;;
51332;SDS011;37417;48.118;11.734;2023-09-08T15:42:31;4.45;;;3.38;;
51332;SDS011;37417;48.118;11.734;2023-09-08T15:45:17;4.55;;;2.90;;
51332;SDS011;37417;48.118;11.734;2023-09-08T15:48:03;4.07;;;3.45;;
51332;SDS011;37417;48.118;11.734;2023-09-08T15:50:49;5.40;;;3.38;;
51332;SDS011;37417;48.118;11.734;2023-09-08T15:53:35;3.47;;;3.17;;
51332;SDS011;37417;48.118;11.734;2023-09-08T15:56:21;4.45;;;4.03;;
51332;SDS011;37417;48.118;11.734;2023-09-08T15:59:07;6.38;;;4.95;;
51332;SDS011;37417;48.118;11.734;2023-09-08T16:01:53;7.45;;;4.20;;
51332;SDS011;37417;48.118;11.734;2023-09-08T16:04:38;6.57;;;4.85;;
51332;SDS011;37417;48.118;11.734;2023-09-08T16:07:24;10.07;;;4.28;;
51332;SDS011;37417;48.118;11.734;2023-09-08T16:10:10;3.70;;;3.30;;
51332;SDS011;37417;48.118;11.734;2023-09-08T16:12:55;4.72;;;3.85;;
51332;SDS011;37417;48.118;11.734;2023-09-08T16:15:42;4.25;;;3.58;;
51332;SDS011;37417;48.118;11.734;2023-09-08T16:18:30;3.63;;;3.33;;
51332;SDS011;37417;48.118;11.734;2023-09-08T16:21:16;4.70;;;3.65;;
51332;SDS011;37417;48.118;11.734;2023-09-08T16:24:01;4.40;;;3.92;;
51332;SDS011;37417;48.118;11.734;2023-09-08T16:26:47;4.53;;;4.07;;
51332;SDS011;37417;48.118;11.734;2023-09-08T16:29:33;5.32;;;4.75;;
51332;SDS011;37417;48.118;11.734;2023-09-08T16:32:18;11.13;;;6.57;;
51332;SDS011;37417;48.118;11.734;2023-09-08T16:35:04;7.13;;;4.43;;